createdAt,value
2023-09-08T00:01:22.047Z,17.20
2023-09-08T00:03:23.634Z,17.22
2023-09-08T00:05:25.308Z,17.23
2023-09-08T00:07:26.897Z,17.19
2023-09-08T00:09:28.534Z,17.17
2023-09-08T00:11:30.027Z,17.15
2023-09-08T00:13:31.641Z,17.14
2023-09-08T00:15:36.425Z,17.08
2023-09-08T00:17:38.950Z,17.01
2023-09-08T00:19:40.598Z,16.97
2023-09-08T00:21:44.282Z,16.93
2023-09-08T00:23:45.734Z,16.88
2023-09-08T00:25:47.161Z,16.87
2023-09-08T00:27:48.711Z,16.81
2023-09-08T00:29:50.164Z,16.74
2023-09-08T00:31:51.607Z,16.72
2023-09-08T00:33:53.156Z,16.64
2023-09-08T00:35:58.113Z,16.62
2023-09-08T00:37:59.560Z,16.57
2023-09-08T00:40:01.084Z,16.53
2023-09-08T00:42:02.615Z,16.51
2023-09-08T00:44:04.284Z,16.46
2023-09-08T00:46:07.295Z,16.46
2023-09-08T00:48:10.263Z,16.41
2023-09-08T00:50:12.760Z,16.43
2023-09-08T00:52:14.317Z,16.43
2023-09-08T00:54:16.439Z,16.42
2023-09-08T00:56:18.564Z,16.40
2023-09-08T00:58:20.067Z,16.38
2023-09-08T01:00:21.523Z,16.36
2023-09-08T01:02:23.644Z,16.36
2023-09-08T01:04:25.539Z,16.35
2023-09-08T01:06:28.040Z,16.33
2023-09-08T01:08:30.222Z,16.34
2023-09-08T01:10:31.859Z,16.33
2023-09-08T01:12:36.594Z,16.32
2023-09-08T01:14:38.073Z,16.29
2023-09-08T01:16:41.472Z,16.33
2023-09-08T01:18:45.077Z,16.31
2023-09-08T01:21:04.681Z,16.29
2023-09-08T01:23:12.011Z,16.29
2023-09-08T01:25:13.430Z,16.23
2023-09-08T01:27:16.723Z,16.21
2023-09-08T01:29:20.325Z,16.20
2023-09-08T01:31:21.835Z,16.17
2023-09-08T01:33:24.130Z,16.19
2023-09-08T01:35:26.042Z,16.19
2023-09-08T01:37:27.801Z,16.21
2023-09-08T01:39:29.409Z,16.20
2023-09-08T01:41:32.494Z,16.22
2023-09-08T01:43:34.038Z,16.20
2023-09-08T01:45:35.585Z,16.21
2023-09-08T01:47:37.816Z,16.22
2023-09-08T01:49:39.352Z,16.23
2023-09-08T01:51:40.850Z,16.26
2023-09-08T01:53:42.381Z,16.27
2023-09-08T01:55:44.030Z,16.27
2023-09-08T01:57:45.519Z,16.28
2023-09-08T01:59:47.042Z,16.25
2023-09-08T02:01:48.527Z,16.25
2023-09-08T02:03:49.985Z,16.24
2023-09-08T02:05:51.426Z,16.22
2023-09-08T02:07:52.969Z,16.20
2023-09-08T02:09:54.448Z,16.17
2023-09-08T02:11:55.905Z,16.15
2023-09-08T02:13:58.633Z,16.12
2023-09-08T02:16:00.411Z,16.12
2023-09-08T02:18:01.957Z,16.06
2023-09-08T02:20:04.433Z,16.07
2023-09-08T02:22:05.982Z,16.00
2023-09-08T02:24:07.835Z,16.02
2023-09-08T02:26:09.421Z,16.00
2023-09-08T02:28:10.888Z,15.99
2023-09-08T02:30:12.476Z,15.95
2023-09-08T02:32:15.258Z,15.91
2023-09-08T02:34:16.714Z,15.92
2023-09-08T02:36:18.227Z,15.91
2023-09-08T02:38:19.681Z,15.92
2023-09-08T02:40:21.663Z,15.88
2023-09-08T02:42:23.128Z,15.87
2023-09-08T02:44:24.664Z,15.85
2023-09-08T02:46:26.206Z,15.84
2023-09-08T02:48:27.654Z,15.83
2023-09-08T02:50:29.090Z,15.85
2023-09-08T02:52:30.643Z,15.85
2023-09-08T02:54:32.071Z,15.83
2023-09-08T02:56:33.568Z,15.85
2023-09-08T02:58:35.444Z,15.83
2023-09-08T03:00:37.157Z,15.83
2023-09-08T03:02:38.920Z,15.81
2023-09-08T03:04:40.552Z,15.81
2023-09-08T03:06:41.969Z,15.84
2023-09-08T03:08:43.485Z,15.80
2023-09-08T03:10:44.918Z,15.80
2023-09-08T03:12:46.343Z,15.78
2023-09-08T03:14:47.849Z,15.77
2023-09-08T03:16:49.387Z,15.77
2023-09-08T03:18:50.923Z,15.77
2023-09-08T03:20:52.557Z,15.76
2023-09-08T03:22:54.084Z,15.77
2023-09-08T03:24:55.526Z,15.81
2023-09-08T03:26:58.930Z,15.82
2023-09-08T03:29:00.401Z,15.81
2023-09-08T03:31:03.153Z,15.79
2023-09-08T03:33:04.899Z,15.79
2023-09-08T03:35:08.363Z,15.80
2023-09-08T03:37:09.896Z,15.80
2023-09-08T03:39:11.594Z,15.80
2023-09-08T03:41:13.175Z,15.79
2023-09-08T03:43:14.901Z,15.79
2023-09-08T03:45:16.595Z,15.74
2023-09-08T03:47:18.181Z,15.71
2023-09-08T03:49:19.771Z,15.69
2023-09-08T03:51:21.246Z,15.65
2023-09-08T03:53:22.818Z,15.64
2023-09-08T03:55:24.330Z,15.61
2023-09-08T03:57:25.819Z,15.59
2023-09-08T03:59:27.298Z,15.54
2023-09-08T04:01:28.767Z,15.54
2023-09-08T04:03:30.513Z,15.54
2023-09-08T04:05:33.220Z,15.54
2023-09-08T04:07:34.765Z,15.54
2023-09-08T04:09:36.247Z,15.55
2023-09-08T04:11:37.813Z,15.56
2023-09-08T04:13:39.349Z,15.56
2023-09-08T04:15:40.799Z,15.53
2023-09-08T04:17:42.451Z,15.51
2023-09-08T04:19:44.269Z,15.51
2023-09-08T04:21:45.783Z,15.49
2023-09-08T04:23:47.828Z,15.45
2023-09-08T04:25:49.351Z,15.43
2023-09-08T04:27:50.792Z,15.41
2023-09-08T04:29:52.330Z,15.44
2023-09-08T04:31:53.788Z,15.43
2023-09-08T04:33:55.624Z,15.43
2023-09-08T04:35:57.217Z,15.41
2023-09-08T04:37:58.625Z,15.37
2023-09-08T04:40:00.188Z,15.37
2023-09-08T04:42:02.492Z,15.38
2023-09-08T04:44:04.667Z,15.38
2023-09-08T04:46:06.156Z,15.35
2023-09-08T04:48:07.756Z,15.34
2023-09-08T04:50:09.947Z,15.31
2023-09-08T04:52:12.357Z,15.27
2023-09-08T04:54:13.852Z,15.21
2023-09-08T04:56:15.518Z,15.19
2023-09-08T04:58:16.947Z,15.17
2023-09-08T05:00:19.062Z,15.12
2023-09-08T05:02:20.833Z,15.14
2023-09-08T05:04:22.421Z,15.18
2023-09-08T05:06:23.963Z,15.20
2023-09-08T05:08:25.409Z,15.23
2023-09-08T05:10:26.910Z,15.26
2023-09-08T05:12:28.467Z,15.29
2023-09-08T05:14:30.032Z,15.30
2023-09-08T05:16:46.701Z,15.30
2023-09-08T05:18:48.270Z,15.34
2023-09-08T05:20:49.745Z,15.37
2023-09-08T05:22:51.200Z,15.41
2023-09-08T05:24:52.642Z,15.45
2023-09-08T05:26:54.143Z,15.49
2023-09-08T05:28:55.609Z,15.52
2023-09-08T05:30:57.112Z,15.55
2023-09-08T05:32:58.734Z,15.60
2023-09-08T05:35:00.516Z,15.63
2023-09-08T05:37:02.053Z,15.68
2023-09-08T05:39:03.669Z,15.71
2023-09-08T05:41:05.094Z,15.75
2023-09-08T05:43:06.840Z,15.77
2023-09-08T05:45:08.513Z,15.79
2023-09-08T05:47:10.097Z,15.82
2023-09-08T05:49:11.858Z,15.83
2023-09-08T05:51:13.304Z,15.87
2023-09-08T05:53:14.864Z,15.88
2023-09-08T05:55:16.337Z,15.93
2023-09-08T05:57:20.396Z,15.92
2023-09-08T05:59:21.833Z,15.95
2023-09-08T06:01:23.372Z,15.99
2023-09-08T06:03:24.969Z,16.04
2023-09-08T06:05:26.513Z,16.09
2023-09-08T06:07:27.974Z,16.11
2023-09-08T06:09:29.501Z,16.14
2023-09-08T06:11:31.018Z,16.17
2023-09-08T06:13:32.471Z,16.21
2023-09-08T06:15:33.986Z,16.23
2023-09-08T06:17:35.507Z,16.26
2023-09-08T06:19:37.081Z,16.31
2023-09-08T06:21:38.531Z,16.33
2023-09-08T06:23:40.039Z,16.37
2023-09-08T06:25:41.758Z,16.42
2023-09-08T06:27:43.176Z,16.44
2023-09-08T06:29:44.877Z,16.48
2023-09-08T06:31:46.359Z,16.53
2023-09-08T06:33:48.294Z,16.57
2023-09-08T06:35:50.007Z,16.63
2023-09-08T06:37:51.476Z,16.66
2023-09-08T06:39:55.747Z,16.72
2023-09-08T06:41:57.250Z,16.78
2023-09-08T06:43:58.709Z,16.83
2023-09-08T06:46:00.456Z,16.89
2023-09-08T06:48:02.243Z,16.92
2023-09-08T06:50:04.086Z,16.98
2023-09-08T06:52:06.090Z,17.04
2023-09-08T06:54:08.317Z,17.10
2023-09-08T06:56:09.863Z,17.15
2023-09-08T06:58:11.703Z,17.22
2023-09-08T07:00:14.401Z,17.29
2023-09-08T07:02:16.014Z,17.35
2023-09-08T07:04:17.750Z,17.41
2023-09-08T07:06:19.361Z,17.49
2023-09-08T07:08:21.425Z,17.56
2023-09-08T07:10:23.065Z,17.65
2023-09-08T07:12:24.542Z,17.73
2023-09-08T07:14:25.969Z,17.80
2023-09-08T07:16:27.640Z,17.88
2023-09-08T07:18:29.646Z,17.94
2023-09-08T07:20:31.322Z,18.04
2023-09-08T07:22:32.911Z,18.12
2023-09-08T07:24:34.411Z,18.23
2023-09-08T07:26:35.860Z,18.30
2023-09-08T07:28:37.657Z,18.35
2023-09-08T07:30:39.450Z,18.47
2023-09-08T07:32:41.108Z,18.56
2023-09-08T07:34:42.667Z,18.62
2023-09-08T07:36:44.683Z,18.74
2023-09-08T07:38:46.122Z,18.89
2023-09-08T07:40:47.636Z,18.98
2023-09-08T07:42:49.081Z,19.12
2023-09-08T07:44:50.653Z,19.22
2023-09-08T07:46:52.528Z,19.31
2023-09-08T07:48:54.166Z,19.39
2023-09-08T07:50:55.639Z,19.48
2023-09-08T07:52:58.011Z,19.59
2023-09-08T07:54:59.490Z,19.74
2023-09-08T07:57:00.955Z,19.77
2023-09-08T07:59:02.482Z,19.92
2023-09-08T08:01:03.944Z,19.97
2023-09-08T08:03:07.145Z,20.04
2023-09-08T08:05:10.229Z,20.12
2023-09-08T08:07:11.899Z,20.22
2023-09-08T08:09:13.414Z,20.31
2023-09-08T08:11:18.721Z,20.44
2023-09-08T08:13:20.586Z,20.54
2023-09-08T08:15:25.254Z,20.65
2023-09-08T08:17:28.865Z,20.73
2023-09-08T08:19:30.390Z,20.84
2023-09-08T08:21:31.934Z,20.95
2023-09-08T08:23:34.997Z,21.05
2023-09-08T08:25:36.856Z,21.13
2023-09-08T08:27:38.311Z,21.26
2023-09-08T08:29:41.003Z,21.31
2023-09-08T08:31:42.558Z,21.44
2023-09-08T08:33:44.203Z,21.53
2023-09-08T08:35:53.094Z,21.56
2023-09-08T08:37:54.580Z,21.69
2023-09-08T08:39:56.085Z,21.73
2023-09-08T08:41:57.637Z,21.78
2023-09-08T08:44:00.722Z,21.94
2023-09-08T08:46:03.113Z,22.02
2023-09-08T08:48:05.945Z,22.05
2023-09-08T08:50:11.442Z,22.17
2023-09-08T08:52:14.243Z,22.23
2023-09-08T08:54:16.547Z,22.36
2023-09-08T08:56:19.259Z,22.51
2023-09-08T08:58:25.970Z,22.60
2023-09-08T09:00:28.301Z,22.69
2023-09-08T09:02:30.311Z,22.87
2023-09-08T09:04:32.519Z,22.88
2023-09-08T09:06:34.208Z,23.03
2023-09-08T09:08:36.697Z,23.10
2023-09-08T09:10:38.306Z,23.23
2023-09-08T09:12:40.576Z,23.28
2023-09-08T09:14:48.354Z,23.35
2023-09-08T09:16:50.507Z,23.41
2023-09-08T09:19:00.396Z,23.55
2023-09-08T09:21:02.680Z,23.59
2023-09-08T09:23:04.630Z,23.72
2023-09-08T09:25:08.685Z,23.84
2023-09-08T09:27:11.732Z,23.89
2023-09-08T09:29:14.544Z,23.96
2023-09-08T09:31:16.033Z,24.02
2023-09-08T09:33:18.170Z,24.12
2023-09-08T09:35:19.706Z,24.25
2023-09-08T09:37:21.395Z,24.30
2023-09-08T09:39:27.469Z,24.31
2023-09-08T09:41:30.547Z,24.41
2023-09-08T09:43:32.055Z,24.50
2023-09-08T09:45:35.320Z,24.58
2023-09-08T09:47:37.605Z,24.66
2023-09-08T09:49:46.856Z,24.75
2023-09-08T09:51:51.729Z,24.83
2023-09-08T09:53:55.197Z,24.98
2023-09-08T09:55:57.853Z,25.05
2023-09-08T09:58:01.837Z,25.07
2023-09-08T10:00:06.717Z,25.04
2023-09-08T10:02:13.964Z,25.20
2023-09-08T10:04:17.091Z,25.15
2023-09-08T10:06:21.024Z,25.32
2023-09-08T10:08:22.640Z,25.41
2023-09-08T10:10:26.700Z,25.46
2023-09-08T10:12:33.036Z,25.59
2023-09-08T10:14:37.551Z,25.65
2023-09-08T10:16:44.057Z,25.70
2023-09-08T10:18:47.213Z,25.79
2023-09-08T10:20:50.181Z,25.78
2023-09-08T10:23:19.747Z,25.91
2023-09-08T10:25:22.574Z,26.03
2023-09-08T10:27:25.256Z,26.03
2023-09-08T10:29:28.368Z,26.08
2023-09-08T10:31:30.929Z,26.13
2023-09-08T10:33:34.202Z,26.30
2023-09-08T10:35:36.460Z,26.31
2023-09-08T10:37:41.442Z,26.34
2023-09-08T10:39:43.080Z,26.42
2023-09-08T10:41:45.781Z,26.35
2023-09-08T10:43:55.491Z,26.50
2023-09-08T10:45:58.331Z,26.54
2023-09-08T10:48:00.154Z,26.60
2023-09-08T10:50:02.422Z,26.71
2023-09-08T10:52:11.853Z,26.77
2023-09-08T10:54:45.633Z,26.80
2023-09-08T10:56:56.842Z,26.75
2023-09-08T10:59:00.245Z,26.78
2023-09-08T11:01:02.342Z,26.81
2023-09-08T11:03:05.122Z,26.94
2023-09-08T11:05:14.962Z,27.06
2023-09-08T11:07:17.195Z,27.17
2023-09-08T11:09:18.639Z,27.18
2023-09-08T11:11:20.681Z,27.19
2023-09-08T11:13:22.201Z,27.35
2023-09-08T11:15:23.814Z,27.41
2023-09-08T11:17:29.157Z,27.42
2023-09-08T11:19:48.342Z,27.48
2023-09-08T11:21:51.155Z,27.48
2023-09-08T11:23:52.678Z,27.60
2023-09-08T11:25:54.454Z,27.65
2023-09-08T11:27:56.019Z,27.72
2023-09-08T11:29:58.266Z,27.75
2023-09-08T11:31:59.928Z,27.83
2023-09-08T11:34:01.547Z,27.82
2023-09-08T11:36:03.227Z,27.92
2023-09-08T11:38:05.892Z,27.96
2023-09-08T11:40:10.953Z,28.04
2023-09-08T11:42:14.322Z,28.12
2023-09-08T11:44:19.994Z,28.11
2023-09-08T11:46:22.572Z,28.19
2023-09-08T11:48:25.879Z,28.24
2023-09-08T11:50:27.427Z,28.32
2023-09-08T11:52:29.098Z,28.29
2023-09-08T11:54:35.485Z,28.40
2023-09-08T11:56:38.011Z,28.41
2023-09-08T11:58:43.266Z,28.36
2023-09-08T12:00:46.286Z,28.48
2023-09-08T12:02:47.968Z,28.56
2023-09-08T12:04:49.445Z,28.61
2023-09-08T12:06:53.389Z,28.45
2023-09-08T12:08:56.536Z,28.59
2023-09-08T12:10:58.108Z,28.69
2023-09-08T12:13:01.499Z,28.63
2023-09-08T12:15:03.150Z,28.77
2023-09-08T12:17:08.937Z,28.88
2023-09-08T12:19:31.147Z,28.92
2023-09-08T12:21:33.572Z,29.01
2023-09-08T12:23:35.054Z,28.96
2023-09-08T12:25:46.092Z,29.09
2023-09-08T12:27:53.988Z,29.09
2023-09-08T12:30:01.825Z,29.13
2023-09-08T12:32:03.622Z,29.13
2023-09-08T12:34:05.246Z,29.23
2023-09-08T12:36:17.810Z,29.21
2023-09-08T12:38:19.470Z,29.23
2023-09-08T12:40:21.049Z,29.26
2023-09-08T12:42:26.677Z,29.32
2023-09-08T12:44:28.720Z,29.41
2023-09-08T12:46:32.588Z,29.44
2023-09-08T12:48:34.281Z,29.51
2023-09-08T12:50:35.890Z,29.50
2023-09-08T12:52:37.306Z,29.55
2023-09-08T12:54:39.534Z,29.58
2023-09-08T12:56:40.992Z,29.61
2023-09-08T12:58:42.401Z,29.58
2023-09-08T13:00:45.546Z,29.63
2023-09-08T13:02:47.038Z,29.63
2023-09-08T13:04:49.809Z,29.62
2023-09-08T13:06:52.015Z,29.74
2023-09-08T13:08:53.809Z,29.82
2023-09-08T13:10:55.334Z,29.80
2023-09-08T13:12:57.258Z,29.74
2023-09-08T13:14:58.715Z,29.72
2023-09-08T13:17:00.276Z,29.73
2023-09-08T13:19:03.735Z,29.80
2023-09-08T13:21:06.354Z,29.76
2023-09-08T13:23:07.822Z,29.79
2023-09-08T13:25:09.666Z,29.90
2023-09-08T13:27:12.520Z,29.91
2023-09-08T13:29:14.146Z,29.92
2023-09-08T13:31:15.571Z,29.95
2023-09-08T13:33:17.125Z,29.97
2023-09-08T13:35:18.708Z,29.96
2023-09-08T13:37:20.150Z,29.91
2023-09-08T13:39:21.694Z,29.89
2023-09-08T13:41:23.208Z,29.88
2023-09-08T13:43:24.811Z,29.83
2023-09-08T13:45:26.296Z,29.77
2023-09-08T13:47:28.658Z,29.77
2023-09-08T13:49:30.702Z,29.71
2023-09-08T13:51:34.730Z,29.68
2023-09-08T13:53:43.486Z,29.58
2023-09-08T13:55:51.455Z,29.55
2023-09-08T13:57:55.775Z,29.56
2023-09-08T13:59:58.382Z,29.51
2023-09-08T14:06:12.100Z,29.49
2023-09-08T14:08:18.493Z,29.44
2023-09-08T14:12:34.517Z,29.46
2023-09-08T14:14:37.530Z,29.42
2023-09-08T14:16:39.236Z,29.34
2023-09-08T14:18:40.824Z,29.44
2023-09-08T14:20:43.206Z,29.39
2023-09-08T14:22:44.727Z,29.36
2023-09-08T14:24:46.218Z,29.39
2023-09-08T14:26:47.714Z,29.42
2023-09-08T14:28:49.150Z,29.28
2023-09-08T14:30:52.121Z,29.47
2023-09-08T14:32:53.728Z,29.49
2023-09-08T14:34:55.616Z,29.50
2023-09-08T14:36:57.086Z,29.58
2023-09-08T14:38:58.595Z,29.64
2023-09-08T14:41:02.200Z,29.65
2023-09-08T14:43:04.109Z,29.75
2023-09-08T14:45:06.169Z,29.88
2023-09-08T14:47:07.784Z,30.03
2023-09-08T14:49:09.252Z,30.13
2023-09-08T14:51:10.729Z,30.18
2023-09-08T14:53:12.413Z,30.37
2023-09-08T14:55:13.887Z,30.39
2023-09-08T14:57:15.517Z,30.40
2023-09-08T14:59:16.987Z,30.42
2023-09-08T15:01:18.520Z,30.47
2023-09-08T15:03:20.193Z,31.38
2023-09-08T15:05:21.755Z,33.96
2023-09-08T15:07:23.418Z,32.74
2023-09-08T15:09:28.629Z,32.20
2023-09-08T15:11:30.091Z,31.65
2023-09-08T15:13:31.724Z,31.42
2023-09-08T15:15:33.315Z,31.12
2023-09-08T15:17:34.825Z,31.37
2023-09-08T15:19:36.312Z,31.73
2023-09-08T15:21:37.762Z,32.17
2023-09-08T15:23:39.513Z,32.55
2023-09-08T15:25:40.995Z,31.90
2023-09-08T15:27:43.909Z,34.66
2023-09-08T15:29:45.926Z,37.64
2023-09-08T15:31:49.731Z,38.97
2023-09-08T15:33:52.773Z,37.14
2023-09-08T15:35:57.755Z,35.42
2023-09-08T15:37:59.244Z,35.17
2023-09-08T15:40:01.641Z,39.16
2023-09-08T15:42:03.285Z,39.43
2023-09-08T15:44:05.121Z,36.85
2023-09-08T15:46:07.861Z,35.91
2023-09-08T15:48:09.354Z,36.42
2023-09-08T15:50:11.539Z,38.26
2023-09-08T15:52:16.274Z,42.03
2023-09-08T15:54:18.505Z,45.00
2023-09-08T15:56:20.004Z,46.30
2023-09-08T15:58:21.562Z,47.39
2023-09-08T16:00:23.208Z,48.00
2023-09-08T16:02:24.827Z,48.74
2023-09-08T16:04:27.659Z,48.78
2023-09-08T16:06:29.530Z,48.96
2023-09-08T16:08:31.219Z,49.12
2023-09-08T16:10:32.654Z,49.17
2023-09-08T16:12:34.111Z,49.54
2023-09-08T16:14:36.377Z,48.81
2023-09-08T16:16:37.952Z,48.53
2023-09-08T16:18:39.530Z,48.95
2023-09-08T16:20:41.170Z,49.20
2023-09-08T16:22:42.838Z,48.55
2023-09-08T16:24:44.610Z,45.49
2023-09-08T16:26:46.093Z,40.92
2023-09-08T16:28:47.728Z,37.73
2023-09-08T16:30:49.195Z,36.32
2023-09-08T16:32:50.715Z,35.49
2023-09-08T16:34:52.686Z,34.30
2023-09-08T16:36:54.171Z,33.71
2023-09-08T16:38:55.622Z,33.23
2023-09-08T16:40:58.916Z,32.48
2023-09-08T16:43:03.871Z,31.82
2023-09-08T16:45:05.993Z,31.75
2023-09-08T16:47:08.304Z,31.43
2023-09-08T16:49:09.760Z,30.89
2023-09-08T16:51:11.521Z,30.84
2023-09-08T16:53:13.082Z,30.61
2023-09-08T16:55:15.245Z,30.42
2023-09-08T16:57:18.383Z,30.00
2023-09-08T16:59:22.173Z,29.76
2023-09-08T17:01:23.713Z,29.50
2023-09-08T17:03:25.321Z,29.30
2023-09-08T17:05:26.852Z,29.19
2023-09-08T17:07:28.370Z,28.87
2023-09-08T17:09:30.262Z,28.67
2023-09-08T17:11:37.819Z,28.39
2023-09-08T17:13:40.345Z,28.31
2023-09-08T17:15:41.825Z,28.10
2023-09-08T17:17:44.463Z,28.01
2023-09-08T17:19:45.949Z,27.68
2023-09-08T17:21:47.544Z,27.52
2023-09-08T17:23:49.134Z,27.30
2023-09-08T17:25:54.134Z,27.18
2023-09-08T17:27:56.404Z,27.10
2023-09-08T17:29:57.876Z,27.18
2023-09-08T17:31:59.849Z,26.99
2023-09-08T17:34:01.383Z,26.83
2023-09-08T17:36:03.113Z,26.81
2023-09-08T17:38:05.602Z,26.82
2023-09-08T17:40:07.910Z,26.68
2023-09-08T17:42:09.423Z,26.55
2023-09-08T17:44:10.853Z,26.51
2023-09-08T17:46:12.342Z,26.50
2023-09-08T17:48:13.936Z,26.39
2023-09-08T17:50:15.943Z,26.18
2023-09-08T17:52:17.462Z,26.14
2023-09-08T17:54:18.991Z,25.94
2023-09-08T17:56:20.406Z,26.02
2023-09-08T17:58:21.837Z,25.89
2023-09-08T18:00:23.544Z,25.86
2023-09-08T18:02:25.986Z,25.86
2023-09-08T18:04:27.753Z,25.75
2023-09-08T18:06:29.334Z,25.73
2023-09-08T18:08:31.021Z,25.69
2023-09-08T18:10:32.533Z,25.57
2023-09-08T18:12:34.014Z,25.39
2023-09-08T18:14:35.431Z,25.29
2023-09-08T18:16:37.337Z,25.19
2023-09-08T18:18:39.155Z,25.13
2023-09-08T18:20:41.056Z,25.07
2023-09-08T18:22:42.512Z,24.86
2023-09-08T18:24:44.146Z,24.77
2023-09-08T18:26:45.593Z,24.68
2023-09-08T18:28:47.166Z,24.59
2023-09-08T18:30:48.677Z,24.53
2023-09-08T18:32:50.098Z,24.44
2023-09-08T18:34:54.456Z,24.47
2023-09-08T18:36:56.412Z,24.33
2023-09-08T18:38:57.941Z,24.29
2023-09-08T18:40:59.478Z,24.28
2023-09-08T18:43:02.191Z,24.30
2023-09-08T18:45:04.414Z,24.32
2023-09-08T18:47:06.209Z,24.36
2023-09-08T18:49:08.713Z,24.16
2023-09-08T18:51:10.918Z,23.92
2023-09-08T18:53:12.614Z,23.73
2023-09-08T18:55:14.050Z,23.63
2023-09-08T18:57:16.838Z,23.60
2023-09-08T18:59:18.252Z,23.56
2023-09-08T19:01:19.742Z,23.46
2023-09-08T19:03:21.435Z,23.43
2023-09-08T19:05:23.174Z,23.31
2023-09-08T19:07:24.714Z,23.27
2023-09-08T19:09:26.145Z,23.13
2023-09-08T19:11:27.672Z,23.05
2023-09-08T19:13:29.334Z,22.98
2023-09-08T19:15:31.014Z,22.95
2023-09-08T19:17:32.661Z,22.82
2023-09-08T19:19:34.193Z,22.75
2023-09-08T19:21:35.697Z,22.70
2023-09-08T19:23:37.293Z,22.66
2023-09-08T19:25:40.175Z,22.57
2023-09-08T19:27:41.643Z,22.50
2023-09-08T19:29:43.157Z,22.42
2023-09-08T19:31:44.607Z,22.39
2023-09-08T19:33:46.313Z,22.30
2023-09-08T19:35:47.817Z,22.26
2023-09-08T19:37:49.523Z,22.18
2023-09-08T19:39:51.004Z,22.15
2023-09-08T19:41:52.531Z,22.10
2023-09-08T19:43:53.948Z,22.01
2023-09-08T19:45:55.371Z,21.95
2023-09-08T19:47:56.965Z,21.89
2023-09-08T19:49:58.671Z,21.82
2023-09-08T19:52:00.159Z,21.77
2023-09-08T19:54:01.763Z,21.71
2023-09-08T19:56:03.392Z,21.69
2023-09-08T19:58:05.079Z,21.63
2023-09-08T20:00:07.664Z,21.56
2023-09-08T20:02:09.772Z,21.52
2023-09-08T20:04:12.802Z,21.47
2023-09-08T20:06:17.952Z,21.41
2023-09-08T20:08:19.399Z,21.36
2023-09-08T20:10:21.909Z,21.36
2023-09-08T20:12:23.434Z,21.34
2023-09-08T20:14:27.294Z,21.26
2023-09-08T20:16:29.010Z,21.17
2023-09-08T20:18:30.540Z,21.17
2023-09-08T20:20:32.081Z,21.12
2023-09-08T20:22:33.575Z,21.08
2023-09-08T20:24:35.061Z,21.01
2023-09-08T20:26:36.642Z,20.96
2023-09-08T20:28:38.101Z,20.93
2023-09-08T20:30:42.803Z,20.88
2023-09-08T20:32:44.367Z,20.84
2023-09-08T20:34:47.094Z,20.80
2023-09-08T20:36:48.535Z,20.76
2023-09-08T20:38:50.305Z,20.70
2023-09-08T20:40:53.356Z,20.66
2023-09-08T20:42:54.892Z,20.61
2023-09-08T20:44:56.419Z,20.57
2023-09-08T20:46:57.957Z,20.52
2023-09-08T20:48:59.438Z,20.47
2023-09-08T20:51:11.664Z,20.43
2023-09-08T20:53:13.124Z,20.41
2023-09-08T20:55:14.562Z,20.36
2023-09-08T20:57:16.090Z,20.32
2023-09-08T20:59:17.643Z,20.30
2023-09-08T21:01:19.233Z,20.31
2023-09-08T21:03:20.756Z,20.25
2023-09-08T21:05:22.295Z,20.23
2023-09-08T21:07:23.872Z,20.19
2023-09-08T21:09:25.484Z,20.19
2023-09-08T21:11:27.032Z,20.12
2023-09-08T21:13:28.473Z,20.12
2023-09-08T21:15:29.955Z,20.10
2023-09-08T21:17:31.577Z,20.04
2023-09-08T21:19:33.841Z,20.02
2023-09-08T21:21:35.447Z,20.00
2023-09-08T21:23:37.342Z,19.97
2023-09-08T21:25:38.954Z,19.93
2023-09-08T21:27:40.641Z,19.90
2023-09-08T21:29:42.424Z,19.87
2023-09-08T21:31:45.550Z,19.84
2023-09-08T21:33:49.841Z,19.79
2023-09-08T21:35:52.504Z,19.76
2023-09-08T21:37:53.964Z,19.71
2023-09-08T21:39:56.059Z,19.67
2023-09-08T21:41:58.877Z,19.64
2023-09-08T21:44:00.332Z,19.59
2023-09-08T21:46:09.161Z,19.55
2023-09-08T21:48:11.138Z,19.51
2023-09-08T21:50:12.648Z,19.47
2023-09-08T21:52:18.766Z,19.43
2023-09-08T21:54:29.520Z,19.40
2023-09-08T21:56:30.999Z,19.36
2023-09-08T21:58:32.448Z,19.33
2023-09-08T22:00:34.097Z,19.29
2023-09-08T22:02:35.682Z,19.26
2023-09-08T22:04:37.392Z,19.21
2023-09-08T22:06:39.242Z,19.18
2023-09-08T22:08:40.981Z,19.15
2023-09-08T22:10:42.588Z,19.11
2023-09-08T22:12:44.108Z,19.09
2023-09-08T22:14:45.645Z,19.07
2023-09-08T22:16:47.191Z,19.05
2023-09-08T22:18:49.680Z,18.98
2023-09-08T22:20:54.981Z,18.96
2023-09-08T22:22:56.561Z,18.91
2023-09-08T22:24:58.070Z,18.87
2023-09-08T22:27:00.046Z,18.87
2023-09-08T22:29:01.973Z,18.83
2023-09-08T22:31:03.712Z,18.79
2023-09-08T22:33:06.470Z,18.77
2023-09-08T22:35:08.843Z,18.76
2023-09-08T22:37:10.445Z,18.74
2023-09-08T22:39:12.626Z,18.72
2023-09-08T22:41:14.370Z,18.71
2023-09-08T22:43:15.795Z,18.63
2023-09-08T22:45:17.792Z,18.63
2023-09-08T22:47:19.428Z,18.60
2023-09-08T22:49:20.892Z,18.58
2023-09-08T22:51:22.310Z,18.54
2023-09-08T22:53:24.023Z,18.54
2023-09-08T22:55:26.379Z,18.51
2023-09-08T22:57:28.162Z,18.47
2023-09-08T22:59:29.681Z,18.47
2023-09-08T23:01:31.161Z,18.44
2023-09-08T23:03:33.386Z,18.42
2023-09-08T23:05:35.673Z,18.41
2023-09-08T23:07:37.400Z,18.37
2023-09-08T23:09:38.916Z,18.34
2023-09-08T23:11:40.451Z,18.31
2023-09-08T23:13:41.998Z,18.29
2023-09-08T23:15:44.024Z,18.27
2023-09-08T23:17:45.544Z,18.25
2023-09-08T23:19:47.044Z,18.23
2023-09-08T23:21:48.668Z,18.22
2023-09-08T23:23:50.163Z,18.20
2023-09-08T23:25:51.685Z,18.18
2023-09-08T23:27:53.223Z,18.15
2023-09-08T23:29:56.101Z,18.13
2023-09-08T23:31:58.012Z,18.12
2023-09-08T23:33:59.494Z,18.11
2023-09-08T23:36:00.945Z,18.07
2023-09-08T23:38:02.475Z,18.06
2023-09-08T23:40:06.272Z,18.04
2023-09-08T23:42:08.468Z,18.04
2023-09-08T23:44:09.930Z,18.01
2023-09-08T23:46:11.748Z,18.02
2023-09-08T23:48:13.478Z,17.99
2023-09-08T23:50:14.958Z,17.97
2023-09-08T23:52:16.457Z,17.96
2023-09-08T23:54:19.492Z,17.94
2023-09-08T23:56:21.036Z,17.93
2023-09-08T23:58:23.254Z,17.92
